sensor_id;sensor_type;location;lat;lon;timestamp;pressure;altitude;pressure_sealevel;temperature;humidity
2549;BME280;1284;53.520;10.248;2022-12-18T00:02:16;102206.78;;;-1.54;84.69
2549;BME280;1284;53.520;10.248;2022-12-18T00:04:41;102207.28;;;-1.40;84.54
2549;BME280;1284;53.520;10.248;2022-12-18T00:07:06;102204.56;;;-1.45;83.76
2549;BME280;1284;53.520;10.248;2022-12-18T00:09:32;102208.75;;;-1.61;83.92
2549;BME280;1284;53.520;10.248;2022-12-18T00:11:57;102212.38;;;-1.50;84.17
2549;BME280;1284;53.520;10.248;2022-12-18T00:14:23;102208.94;;;-1.51;84.15
2549;BME280;1284;53.520;10.248;2022-12-18T00:16:48;102213.88;;;-1.54;84.27
2549;BME280;1284;53.520;10.248;2022-12-18T00:19:14;102212.94;;;-1.48;84.00
2549;BME280;1284;53.520;10.248;2022-12-18T00:21:41;102211.25;;;-1.54;83.09
2549;BME280;1284;53.520;10.248;2022-12-18T00:24:08;102211.03;;;-1.64;83.41
2549;BME280;1284;53.520;10.248;2022-12-18T00:26:34;102215.22;;;-1.68;83.47
2549;BME280;1284;53.520;10.248;2022-12-18T00:29:05;102222.66;;;-1.65;83.68
2549;BME280;1284;53.520;10.248;2022-12-18T00:31:31;102223.84;;;-1.45;83.66
2549;BME280;1284;53.520;10.248;2022-12-18T00:34:00;102223.44;;;-1.53;83.13
2549;BME280;1284;53.520;10.248;2022-12-18T00:36:28;102223.03;;;-1.73;83.28
2549;BME280;1284;53.520;10.248;2022-12-18T00:38:55;102233.31;;;-1.60;83.44
2549;BME280;1284;53.520;10.248;2022-12-18T00:41:21;102236.72;;;-1.48;83.54
2549;BME280;1284;53.520;10.248;2022-12-18T00:44:07;102237.28;;;-1.46;82.89
2549;BME280;1284;53.520;10.248;2022-12-18T00:46:33;102242.84;;;-1.59;82.31
2549;BME280;1284;53.520;10.248;2022-12-18T00:48:59;102244.25;;;-1.68;82.41
2549;BME280;1284;53.520;10.248;2022-12-18T00:51:24;102244.34;;;-1.63;82.39
2549;BME280;1284;53.520;10.248;2022-12-18T00:53:50;102242.31;;;-1.73;82.56
2549;BME280;1284;53.520;10.248;2022-12-18T00:56:16;102240.66;;;-1.62;82.44
2549;BME280;1284;53.520;10.248;2022-12-18T00:58:42;102232.69;;;-1.51;82.20
2549;BME280;1284;53.520;10.248;2022-12-18T01:01:07;102240.19;;;-1.59;82.10
2549;BME280;1284;53.520;10.248;2022-12-18T01:03:33;102234.59;;;-1.63;82.13
2549;BME280;1284;53.520;10.248;2022-12-18T01:05:59;102241.22;;;-1.60;82.14
2549;BME280;1284;53.520;10.248;2022-12-18T01:08:24;102248.13;;;-1.59;81.20
2549;BME280;1284;53.520;10.248;2022-12-18T01:10:50;102246.53;;;-1.72;81.29
2549;BME280;1284;53.520;10.248;2022-12-18T01:13:15;102252.53;;;-1.76;81.99
2549;BME280;1284;53.520;10.248;2022-12-18T01:15:48;102253.69;;;-1.72;81.10
2549;BME280;1284;53.520;10.248;2022-12-18T01:18:14;102251.84;;;-1.84;81.95
2549;BME280;1284;53.520;10.248;2022-12-18T01:20:39;102253.19;;;-1.69;81.73
2549;BME280;1284;53.520;10.248;2022-12-18T01:23:05;102250.81;;;-1.83;81.76
2549;BME280;1284;53.520;10.248;2022-12-18T01:25:33;102258.88;;;-2.01;82.08
2549;BME280;1284;53.520;10.248;2022-12-18T01:27:58;102251.41;;;-1.92;82.35
2549;BME280;1284;53.520;10.248;2022-12-18T01:30:25;102247.31;;;-2.00;81.91
2549;BME280;1284;53.520;10.248;2022-12-18T01:32:52;102245.59;;;-2.06;82.05
2549;BME280;1284;53.520;10.248;2022-12-18T01:35:18;102248.22;;;-2.06;82.52
2549;BME280;1284;53.520;10.248;2022-12-18T01:37:45;102241.56;;;-2.08;82.38
2549;BME280;1284;53.520;10.248;2022-12-18T01:40:10;102235.03;;;-2.17;82.90
2549;BME280;1284;53.520;10.248;2022-12-18T01:42:36;102225.38;;;-2.00;82.77
2549;BME280;1284;53.520;10.248;2022-12-18T01:47:54;102232.16;;;-2.16;82.25
2549;BME280;1284;53.520;10.248;2022-12-18T01:52:49;102238.47;;;-2.17;82.65
2549;BME280;1284;53.520;10.248;2022-12-18T01:55:18;102246.94;;;-2.03;82.42
2549;BME280;1284;53.520;10.248;2022-12-18T01:57:45;102253.03;;;-2.14;82.26
2549;BME280;1284;53.520;10.248;2022-12-18T02:00:15;102257.06;;;-2.12;82.41
2549;BME280;1284;53.520;10.248;2022-12-18T02:02:43;102257.47;;;-1.92;81.41
2549;BME280;1284;53.520;10.248;2022-12-18T02:05:13;102246.59;;;-2.07;81.99
2549;BME280;1284;53.520;10.248;2022-12-18T02:07:57;102254.84;;;-2.15;82.12
2549;BME280;1284;53.520;10.248;2022-12-18T02:13:36;102265.88;;;-2.06;81.76
2549;BME280;1284;53.520;10.248;2022-12-18T02:16:18;102268.63;;;-2.13;81.64
2549;BME280;1284;53.520;10.248;2022-12-18T02:18:45;102272.66;;;-2.10;81.66
2549;BME280;1284;53.520;10.248;2022-12-18T02:21:57;102264.41;;;-2.14;81.64
2549;BME280;1284;53.520;10.248;2022-12-18T02:26:45;102259.69;;;-2.23;81.71
2549;BME280;1284;53.520;10.248;2022-12-18T02:29:17;102264.16;;;-2.01;80.89
2549;BME280;1284;53.520;10.248;2022-12-18T02:31:57;102259.22;;;-2.20;81.55
2549;BME280;1284;53.520;10.248;2022-12-18T02:34:27;102273.09;;;-2.02;81.39
2549;BME280;1284;53.520;10.248;2022-12-18T02:36:55;102270.94;;;-2.16;81.63
2549;BME280;1284;53.520;10.248;2022-12-18T02:39:23;102268.19;;;-2.21;81.74
2549;BME280;1284;53.520;10.248;2022-12-18T02:42:01;102265.22;;;-2.36;82.36
2549;BME280;1284;53.520;10.248;2022-12-18T02:44:34;102271.25;;;-2.36;81.95
2549;BME280;1284;53.520;10.248;2022-12-18T02:47:02;102268.75;;;-2.54;83.36
2549;BME280;1284;53.520;10.248;2022-12-18T02:52:41;102284.31;;;-2.64;84.13
2549;BME280;1284;53.520;10.248;2022-12-18T02:55:23;102268.28;;;-2.51;83.80
2549;BME280;1284;53.520;10.248;2022-12-18T02:58:20;102261.75;;;-2.37;83.61
2549;BME280;1284;53.520;10.248;2022-12-18T03:03:38;102275.50;;;-2.46;82.80
2549;BME280;1284;53.520;10.248;2022-12-18T03:06:06;102273.31;;;-2.49;82.76
2549;BME280;1284;53.520;10.248;2022-12-18T03:11:31;102287.88;;;-2.47;82.42
2549;BME280;1284;53.520;10.248;2022-12-18T03:14:19;102282.84;;;-2.48;82.74
2549;BME280;1284;53.520;10.248;2022-12-18T03:16:50;102289.94;;;-2.60;82.72
2549;BME280;1284;53.520;10.248;2022-12-18T03:19:21;102280.78;;;-2.46;82.60
2549;BME280;1284;53.520;10.248;2022-12-18T03:21:53;102291.44;;;-2.53;82.74
2549;BME280;1284;53.520;10.248;2022-12-18T03:24:20;102283.19;;;-2.45;82.53
2549;BME280;1284;53.520;10.248;2022-12-18T03:26:51;102287.06;;;-2.47;82.50
2549;BME280;1284;53.520;10.248;2022-12-18T03:29:22;102283.41;;;-2.46;82.13
2549;BME280;1284;53.520;10.248;2022-12-18T03:31:54;102280.06;;;-2.53;82.35
2549;BME280;1284;53.520;10.248;2022-12-18T03:34:24;102280.88;;;-2.53;82.28
2549;BME280;1284;53.520;10.248;2022-12-18T03:36:52;102285.34;;;-2.53;82.46
2549;BME280;1284;53.520;10.248;2022-12-18T03:39:19;102300.06;;;-2.46;82.50
2549;BME280;1284;53.520;10.248;2022-12-18T03:42:01;102298.00;;;-2.32;80.99
2549;BME280;1284;53.520;10.248;2022-12-18T03:47:32;102288.69;;;-2.46;81.05
2549;BME280;1284;53.520;10.248;2022-12-18T03:50:29;102278.56;;;-2.72;82.03
2549;BME280;1284;53.520;10.248;2022-12-18T03:55:47;102277.06;;;-2.68;82.25
2549;BME280;1284;53.520;10.248;2022-12-18T03:58:17;102284.53;;;-2.65;82.61
2549;BME280;1284;53.520;10.248;2022-12-18T04:00:55;102275.81;;;-2.78;82.25
2549;BME280;1284;53.520;10.248;2022-12-18T04:03:23;102281.84;;;-2.89;82.91
2549;BME280;1284;53.520;10.248;2022-12-18T04:05:51;102278.41;;;-2.89;83.56
2549;BME280;1284;53.520;10.248;2022-12-18T04:08:20;102268.44;;;-2.87;83.76
2549;BME280;1284;53.520;10.248;2022-12-18T04:10:55;102269.41;;;-3.11;84.14
2549;BME280;1284;53.520;10.248;2022-12-18T04:13:27;102273.78;;;-3.05;84.48
2549;BME280;1284;53.520;10.248;2022-12-18T04:15:54;102277.44;;;-3.06;84.40
2549;BME280;1284;53.520;10.248;2022-12-18T04:18:21;102273.38;;;-3.20;85.66
2549;BME280;1284;53.520;10.248;2022-12-18T04:20:47;102272.50;;;-3.14;85.08
2549;BME280;1284;53.520;10.248;2022-12-18T04:23:13;102272.28;;;-3.01;85.54
2549;BME280;1284;53.520;10.248;2022-12-18T04:25:39;102261.81;;;-3.19;84.52
2549;BME280;1284;53.520;10.248;2022-12-18T04:28:09;102268.38;;;-3.40;85.89
2549;BME280;1284;53.520;10.248;2022-12-18T04:30:38;102268.34;;;-3.22;86.39
2549;BME280;1284;53.520;10.248;2022-12-18T04:33:08;102277.66;;;-3.08;85.27
2549;BME280;1284;53.520;10.248;2022-12-18T04:35:34;102274.06;;;-2.84;85.14
2549;BME280;1284;53.520;10.248;2022-12-18T04:38:00;102281.31;;;-2.79;84.45
2549;BME280;1284;53.520;10.248;2022-12-18T04:40:26;102280.38;;;-2.85;84.72
2549;BME280;1284;53.520;10.248;2022-12-18T04:42:52;102280.16;;;-2.83;84.05
2549;BME280;1284;53.520;10.248;2022-12-18T04:45:17;102288.41;;;-2.80;84.01
2549;BME280;1284;53.520;10.248;2022-12-18T04:47:44;102289.50;;;-2.99;84.20
2549;BME280;1284;53.520;10.248;2022-12-18T04:50:09;102277.25;;;-2.93;84.27
2549;BME280;1284;53.520;10.248;2022-12-18T04:52:35;102276.94;;;-2.85;83.67
2549;BME280;1284;53.520;10.248;2022-12-18T04:55:00;102273.41;;;-2.79;83.59
2549;BME280;1284;53.520;10.248;2022-12-18T04:57:26;102275.81;;;-2.66;83.06
2549;BME280;1284;53.520;10.248;2022-12-18T04:59:51;102277.75;;;-2.85;83.27
2549;BME280;1284;53.520;10.248;2022-12-18T05:02:16;102275.72;;;-2.71;83.21
2549;BME280;1284;53.520;10.248;2022-12-18T05:04:42;102289.19;;;-2.91;83.12
2549;BME280;1284;53.520;10.248;2022-12-18T05:07:10;102291.34;;;-2.88;83.46
2549;BME280;1284;53.520;10.248;2022-12-18T05:09:35;102300.84;;;-2.98;83.25
2549;BME280;1284;53.520;10.248;2022-12-18T05:12:01;102302.09;;;-3.01;83.70
2549;BME280;1284;53.520;10.248;2022-12-18T05:14:26;102308.47;;;-3.08;83.53
2549;BME280;1284;53.520;10.248;2022-12-18T05:16:54;102297.66;;;-3.18;84.10
2549;BME280;1284;53.520;10.248;2022-12-18T05:19:19;102305.09;;;-3.15;83.94
2549;BME280;1284;53.520;10.248;2022-12-18T05:21:45;102304.38;;;-3.04;84.36
2549;BME280;1284;53.520;10.248;2022-12-18T05:24:10;102308.88;;;-2.93;83.83
2549;BME280;1284;53.520;10.248;2022-12-18T05:26:36;102313.44;;;-3.00;83.62
2549;BME280;1284;53.520;10.248;2022-12-18T05:29:01;102313.75;;;-3.08;84.01
2549;BME280;1284;53.520;10.248;2022-12-18T05:31:27;102316.00;;;-3.12;83.86
2549;BME280;1284;53.520;10.248;2022-12-18T05:33:52;102322.53;;;-3.14;84.24
2549;BME280;1284;53.520;10.248;2022-12-18T05:36:17;102322.16;;;-3.18;84.21
2549;BME280;1284;53.520;10.248;2022-12-18T05:38:43;102317.22;;;-3.26;84.54
2549;BME280;1284;53.520;10.248;2022-12-18T05:41:09;102316.53;;;-3.21;84.48
2549;BME280;1284;53.520;10.248;2022-12-18T05:43:36;102313.19;;;-3.28;84.12
2549;BME280;1284;53.520;10.248;2022-12-18T05:46:07;102317.28;;;-3.32;84.58
2549;BME280;1284;53.520;10.248;2022-12-18T05:48:33;102321.06;;;-3.10;83.93
2549;BME280;1284;53.520;10.248;2022-12-18T05:51:07;102324.53;;;-2.98;83.67
2549;BME280;1284;53.520;10.248;2022-12-18T05:53:33;102326.13;;;-2.97;82.80
2549;BME280;1284;53.520;10.248;2022-12-18T05:56:03;102321.41;;;-3.07;82.79
2549;BME280;1284;53.520;10.248;2022-12-18T05:58:29;102320.78;;;-3.20;82.85
2549;BME280;1284;53.520;10.248;2022-12-18T06:00:56;102318.09;;;-3.32;83.18
2549;BME280;1284;53.520;10.248;2022-12-18T06:03:21;102306.31;;;-3.29;83.74
2549;BME280;1284;53.520;10.248;2022-12-18T06:05:47;102313.75;;;-3.26;83.52
2549;BME280;1284;53.520;10.248;2022-12-18T06:10:58;102315.00;;;-3.29;83.35
2549;BME280;1284;53.520;10.248;2022-12-18T06:13:24;102319.44;;;-3.11;82.74
2549;BME280;1284;53.520;10.248;2022-12-18T06:15:49;102326.22;;;-3.33;83.26
2549;BME280;1284;53.520;10.248;2022-12-18T06:18:15;102332.72;;;-3.36;83.30
2549;BME280;1284;53.520;10.248;2022-12-18T06:20:40;102328.69;;;-3.38;83.50
2549;BME280;1284;53.520;10.248;2022-12-18T06:23:06;102331.13;;;-3.55;84.37
2549;BME280;1284;53.520;10.248;2022-12-18T06:25:32;102335.28;;;-3.47;84.50
2549;BME280;1284;53.520;10.248;2022-12-18T06:27:58;102339.25;;;-3.56;84.40
2549;BME280;1284;53.520;10.248;2022-12-18T06:30:23;102346.38;;;-3.82;84.94
2549;BME280;1284;53.520;10.248;2022-12-18T06:32:49;102347.72;;;-3.54;84.78
2549;BME280;1284;53.520;10.248;2022-12-18T06:35:15;102355.47;;;-3.23;84.10
2549;BME280;1284;53.520;10.248;2022-12-18T06:37:40;102349.16;;;-3.40;84.32
2549;BME280;1284;53.520;10.248;2022-12-18T06:40:06;102357.50;;;-3.43;84.41
2549;BME280;1284;53.520;10.248;2022-12-18T06:42:31;102361.16;;;-3.44;83.91
2549;BME280;1284;53.520;10.248;2022-12-18T06:44:57;102360.94;;;-3.61;84.59
2549;BME280;1284;53.520;10.248;2022-12-18T06:47:22;102368.03;;;-3.43;84.47
2549;BME280;1284;53.520;10.248;2022-12-18T06:49:49;102365.47;;;-3.32;84.05
2549;BME280;1284;53.520;10.248;2022-12-18T06:52:17;102362.72;;;-3.37;83.71
2549;BME280;1284;53.520;10.248;2022-12-18T06:54:43;102373.31;;;-3.43;83.14
2549;BME280;1284;53.520;10.248;2022-12-18T06:57:08;102363.59;;;-3.43;83.15
2549;BME280;1284;53.520;10.248;2022-12-18T06:59:34;102370.91;;;-3.45;83.19
2549;BME280;1284;53.520;10.248;2022-12-18T07:01:59;102364.00;;;-3.46;82.98
2549;BME280;1284;53.520;10.248;2022-12-18T07:04:31;102364.09;;;-3.52;83.74
2549;BME280;1284;53.520;10.248;2022-12-18T07:06:56;102367.50;;;-3.52;83.62
2549;BME280;1284;53.520;10.248;2022-12-18T07:09:23;102362.41;;;-3.47;83.93
2549;BME280;1284;53.520;10.248;2022-12-18T07:11:48;102359.41;;;-3.50;83.45
2549;BME280;1284;53.520;10.248;2022-12-18T07:14:14;102360.06;;;-3.37;83.48
2549;BME280;1284;53.520;10.248;2022-12-18T07:16:39;102357.28;;;-3.42;83.09
2549;BME280;1284;53.520;10.248;2022-12-18T07:19:05;102349.91;;;-3.51;82.53
2549;BME280;1284;53.520;10.248;2022-12-18T07:21:31;102359.69;;;-3.58;82.98
2549;BME280;1284;53.520;10.248;2022-12-18T07:23:56;102367.28;;;-3.69;83.21
2549;BME280;1284;53.520;10.248;2022-12-18T07:26:22;102364.66;;;-3.69;83.57
2549;BME280;1284;53.520;10.248;2022-12-18T07:28:48;102377.97;;;-3.63;83.97
2549;BME280;1284;53.520;10.248;2022-12-18T07:31:20;102375.41;;;-3.95;84.92
2549;BME280;1284;53.520;10.248;2022-12-18T07:33:46;102373.78;;;-3.71;84.78
2549;BME280;1284;53.520;10.248;2022-12-18T07:36:11;102373.88;;;-3.78;84.24
2549;BME280;1284;53.520;10.248;2022-12-18T07:38:37;102384.84;;;-3.62;83.87
2549;BME280;1284;53.520;10.248;2022-12-18T07:41:10;102373.16;;;-3.48;82.68
2549;BME280;1284;53.520;10.248;2022-12-18T07:43:36;102384.84;;;-3.44;82.42
2549;BME280;1284;53.520;10.248;2022-12-18T07:46:06;102386.31;;;-3.48;83.23
2549;BME280;1284;53.520;10.248;2022-12-18T07:48:32;102392.38;;;-3.48;82.85
2549;BME280;1284;53.520;10.248;2022-12-18T07:51:02;102394.34;;;-3.43;83.06
2549;BME280;1284;53.520;10.248;2022-12-18T07:53:29;102393.78;;;-3.45;82.26
2549;BME280;1284;53.520;10.248;2022-12-18T07:55:56;102393.25;;;-3.54;82.72
2549;BME280;1284;53.520;10.248;2022-12-18T07:58:22;102394.59;;;-3.88;83.59
2549;BME280;1284;53.520;10.248;2022-12-18T08:00:47;102402.72;;;-3.71;83.65
2549;BME280;1284;53.520;10.248;2022-12-18T08:03:13;102398.28;;;-3.71;83.93
2549;BME280;1284;53.520;10.248;2022-12-18T08:05:38;102396.09;;;-3.74;83.83
2549;BME280;1284;53.520;10.248;2022-12-18T08:08:04;102405.44;;;-3.59;83.51
2549;BME280;1284;53.520;10.248;2022-12-18T08:10:29;102404.59;;;-3.35;83.28
2549;BME280;1284;53.520;10.248;2022-12-18T08:12:55;102399.63;;;-3.43;82.46
2549;BME280;1284;53.520;10.248;2022-12-18T08:15:20;102409.28;;;-3.37;81.74
2549;BME280;1284;53.520;10.248;2022-12-18T08:17:45;102403.13;;;-3.49;82.37
2549;BME280;1284;53.520;10.248;2022-12-18T08:20:11;102391.13;;;-3.45;82.30
2549;BME280;1284;53.520;10.248;2022-12-18T08:22:36;102388.38;;;-3.50;81.83
2549;BME280;1284;53.520;10.248;2022-12-18T08:25:05;102380.00;;;-3.66;82.84
2549;BME280;1284;53.520;10.248;2022-12-18T08:27:31;102375.34;;;-3.45;82.91
2549;BME280;1284;53.520;10.248;2022-12-18T08:29:57;102386.38;;;-3.55;83.11
2549;BME280;1284;53.520;10.248;2022-12-18T08:32:23;102384.84;;;-3.44;82.54
2549;BME280;1284;53.520;10.248;2022-12-18T08:34:49;102383.09;;;-3.32;82.52
2549;BME280;1284;53.520;10.248;2022-12-18T08:37:14;102388.13;;;-3.31;81.48
2549;BME280;1284;53.520;10.248;2022-12-18T08:39:39;102378.72;;;-3.56;82.02
2549;BME280;1284;53.520;10.248;2022-12-18T08:42:05;102373.00;;;-3.53;81.97
2549;BME280;1284;53.520;10.248;2022-12-18T08:44:49;102370.75;;;-3.32;81.90
2549;BME280;1284;53.520;10.248;2022-12-18T08:47:14;102383.25;;;-3.27;81.90
2549;BME280;1284;53.520;10.248;2022-12-18T08:49:40;102389.94;;;-3.13;81.62
2549;BME280;1284;53.520;10.248;2022-12-18T08:52:06;102384.31;;;-2.99;81.22
2549;BME280;1284;53.520;10.248;2022-12-18T08:54:31;102392.09;;;-3.22;80.88
2549;BME280;1284;53.520;10.248;2022-12-18T08:56:56;102397.84;;;-2.95;81.19
2549;BME280;1284;53.520;10.248;2022-12-18T08:59:22;102387.63;;;-2.73;80.18
2549;BME280;1284;53.520;10.248;2022-12-18T09:01:48;102390.94;;;-2.78;80.05
2549;BME280;1284;53.520;10.248;2022-12-18T09:04:14;102388.56;;;-2.68;79.31
2549;BME280;1284;53.520;10.248;2022-12-18T09:06:40;102384.13;;;-2.67;79.07
2549;BME280;1284;53.520;10.248;2022-12-18T09:09:06;102391.25;;;-2.56;78.88
2549;BME280;1284;53.520;10.248;2022-12-18T09:11:32;102382.44;;;-2.50;79.52
2549;BME280;1284;53.520;10.248;2022-12-18T09:13:59;102381.13;;;-2.18;78.49
2549;BME280;1284;53.520;10.248;2022-12-18T09:16:26;102379.22;;;-2.00;77.70
2549;BME280;1284;53.520;10.248;2022-12-18T09:18:54;102383.78;;;-1.72;77.20
2549;BME280;1284;53.520;10.248;2022-12-18T09:21:26;102385.84;;;-1.62;76.75
2549;BME280;1284;53.520;10.248;2022-12-18T09:23:53;102384.84;;;-1.61;75.40
2549;BME280;1284;53.520;10.248;2022-12-18T09:26:20;102387.25;;;-1.60;75.68
2549;BME280;1284;53.520;10.248;2022-12-18T09:28:46;102390.34;;;-1.51;74.99
2549;BME280;1284;53.520;10.248;2022-12-18T09:31:12;102390.22;;;-1.45;74.25
2549;BME280;1284;53.520;10.248;2022-12-18T09:33:39;102391.03;;;-1.91;75.63
2549;BME280;1284;53.520;10.248;2022-12-18T09:36:06;102383.22;;;-1.62;75.08
2549;BME280;1284;53.520;10.248;2022-12-18T09:38:35;102382.28;;;-1.56;74.81
2549;BME280;1284;53.520;10.248;2022-12-18T09:44:02;102385.66;;;-1.61;73.50
2549;BME280;1284;53.520;10.248;2022-12-18T09:46:33;102388.06;;;-1.59;74.21
2549;BME280;1284;53.520;10.248;2022-12-18T09:49:03;102383.19;;;-1.39;73.79
2549;BME280;1284;53.520;10.248;2022-12-18T09:51:36;102385.50;;;-1.43;73.37
2549;BME280;1284;53.520;10.248;2022-12-18T09:54:36;102392.59;;;-1.20;72.77
2549;BME280;1284;53.520;10.248;2022-12-18T09:57:03;102393.13;;;-1.07;72.67
2549;BME280;1284;53.520;10.248;2022-12-18T09:59:36;102396.81;;;-1.08;72.45
2549;BME280;1284;53.520;10.248;2022-12-18T10:04:42;102393.19;;;-0.90;71.25
2549;BME280;1284;53.520;10.248;2022-12-18T10:07:20;102393.31;;;-0.97;71.02
2549;BME280;1284;53.520;10.248;2022-12-18T10:09:57;102403.31;;;-0.99;70.44
2549;BME280;1284;53.520;10.248;2022-12-18T10:12:39;102402.16;;;-0.91;70.76
2549;BME280;1284;53.520;10.248;2022-12-18T10:17:56;102403.22;;;-1.04;72.00
2549;BME280;1284;53.520;10.248;2022-12-18T10:20:34;102400.34;;;-1.02;71.79
2549;BME280;1284;53.520;10.248;2022-12-18T10:28:17;102408.06;;;-1.12;72.42
2549;BME280;1284;53.520;10.248;2022-12-18T10:30:44;102411.94;;;-0.92;71.07
2549;BME280;1284;53.520;10.248;2022-12-18T10:33:16;102406.22;;;-1.12;71.91
2549;BME280;1284;53.520;10.248;2022-12-18T10:35:42;102419.66;;;-1.02;72.62
2549;BME280;1284;53.520;10.248;2022-12-18T10:41:06;102428.63;;;-0.63;70.58
2549;BME280;1284;53.520;10.248;2022-12-18T10:43:39;102421.16;;;-0.66;70.46
2549;BME280;1284;53.520;10.248;2022-12-18T10:48:35;102408.53;;;-0.75;70.85
2549;BME280;1284;53.520;10.248;2022-12-18T10:51:02;102418.59;;;-0.61;70.76
2549;BME280;1284;53.520;10.248;2022-12-18T10:53:31;102408.09;;;-0.56;71.36
2549;BME280;1284;53.520;10.248;2022-12-18T10:55:58;102405.59;;;-0.34;70.17
2549;BME280;1284;53.520;10.248;2022-12-18T10:58:25;102403.38;;;-0.26;70.08
2549;BME280;1284;53.520;10.248;2022-12-18T11:01:17;102405.97;;;-0.42;70.67
2549;BME280;1284;53.520;10.248;2022-12-18T11:04:08;102394.41;;;-0.53;70.99
2549;BME280;1284;53.520;10.248;2022-12-18T11:06:52;102394.69;;;-0.38;69.99
2549;BME280;1284;53.520;10.248;2022-12-18T11:09:20;102385.78;;;-0.32;70.25
2549;BME280;1284;53.520;10.248;2022-12-18T11:11:50;102387.50;;;-0.54;70.24
2549;BME280;1284;53.520;10.248;2022-12-18T11:14:24;102398.34;;;-0.55;71.66
2549;BME280;1284;53.520;10.248;2022-12-18T11:16:51;102408.03;;;-0.61;71.73
2549;BME280;1284;53.520;10.248;2022-12-18T11:19:33;102401.88;;;-0.50;71.65
2549;BME280;1284;53.520;10.248;2022-12-18T11:22:02;102403.88;;;-0.57;71.39
2549;BME280;1284;53.520;10.248;2022-12-18T11:24:31;102393.94;;;-0.50;71.17
2549;BME280;1284;53.520;10.248;2022-12-18T11:27:02;102386.91;;;-0.28;71.09
2549;BME280;1284;53.520;10.248;2022-12-18T11:29:38;102398.81;;;-0.14;70.83
2549;BME280;1284;53.520;10.248;2022-12-18T11:32:26;102380.34;;;-0.09;70.75
2549;BME280;1284;53.520;10.248;2022-12-18T11:35:34;102380.03;;;-0.12;71.25
2549;BME280;1284;53.520;10.248;2022-12-18T11:38:11;102370.88;;;-0.05;70.66
2549;BME280;1284;53.520;10.248;2022-12-18T11:40:40;102357.97;;;-0.01;70.37
2549;BME280;1284;53.520;10.248;2022-12-18T11:43:18;102366.00;;;-0.29;71.20
2549;BME280;1284;53.520;10.248;2022-12-18T11:46:02;102356.19;;;0.05;70.46
2549;BME280;1284;53.520;10.248;2022-12-18T11:48:38;102370.00;;;-0.10;69.56
2549;BME280;1284;53.520;10.248;2022-12-18T11:51:12;102362.84;;;-0.10;70.66
2549;BME280;1284;53.520;10.248;2022-12-18T11:53:39;102363.50;;;-0.19;70.06
2549;BME280;1284;53.520;10.248;2022-12-18T11:58:58;102351.56;;;-0.05;70.28
2549;BME280;1284;53.520;10.248;2022-12-18T12:01:32;102348.09;;;-0.06;70.07
2549;BME280;1284;53.520;10.248;2022-12-18T12:15:25;102323.19;;;0.12;69.64
2549;BME280;1284;53.520;10.248;2022-12-18T12:26:15;102314.22;;;0.13;70.72
2549;BME280;1284;53.520;10.248;2022-12-18T12:34:07;102296.69;;;0.29;70.34
2549;BME280;1284;53.520;10.248;2022-12-18T12:39:18;102310.81;;;0.34;70.14
2549;BME280;1284;53.520;10.248;2022-12-18T12:41:45;102295.34;;;0.26;70.85
2549;BME280;1284;53.520;10.248;2022-12-18T12:44:44;102280.38;;;0.37;70.74
2549;BME280;1284;53.520;10.248;2022-12-18T12:47:18;102285.84;;;0.30;70.58
2549;BME280;1284;53.520;10.248;2022-12-18T12:49:46;102284.75;;;0.26;71.05
2549;BME280;1284;53.520;10.248;2022-12-18T12:52:36;102277.75;;;0.37;70.85
2549;BME280;1284;53.520;10.248;2022-12-18T12:55:07;102270.31;;;0.39;70.44
2549;BME280;1284;53.520;10.248;2022-12-18T12:57:41;102259.84;;;0.27;70.44
2549;BME280;1284;53.520;10.248;2022-12-18T13:05:23;102237.06;;;0.48;70.80
2549;BME280;1284;53.520;10.248;2022-12-18T13:07:51;102241.59;;;0.52;70.38
2549;BME280;1284;53.520;10.248;2022-12-18T13:12:58;102250.22;;;0.64;70.61
2549;BME280;1284;53.520;10.248;2022-12-18T13:20:39;102227.22;;;0.70;69.95
2549;BME280;1284;53.520;10.248;2022-12-18T13:25:53;102244.13;;;0.90;69.22
2549;BME280;1284;53.520;10.248;2022-12-18T13:30:52;102243.47;;;0.78;68.22
2549;BME280;1284;53.520;10.248;2022-12-18T13:40:59;102241.13;;;0.82;68.82
2549;BME280;1284;53.520;10.248;2022-12-18T13:43:32;102236.09;;;0.80;68.52
2549;BME280;1284;53.520;10.248;2022-12-18T13:51:43;102216.38;;;0.71;69.23
2549;BME280;1284;53.520;10.248;2022-12-18T13:56:53;102240.16;;;0.66;69.49
2549;BME280;1284;53.520;10.248;2022-12-18T13:59:21;102235.72;;;0.72;69.38
2549;BME280;1284;53.520;10.248;2022-12-18T14:01:58;102248.19;;;0.71;69.50
2549;BME280;1284;53.520;10.248;2022-12-18T14:04:35;102255.91;;;0.51;69.59
2549;BME280;1284;53.520;10.248;2022-12-18T14:07:04;102262.03;;;0.30;70.70
2549;BME280;1284;53.520;10.248;2022-12-18T14:09:35;102260.97;;;0.10;71.32
2549;BME280;1284;53.520;10.248;2022-12-18T14:12:02;102255.09;;;0.29;71.48
2549;BME280;1284;53.520;10.248;2022-12-18T14:14:48;102246.41;;;0.12;72.29
2549;BME280;1284;53.520;10.248;2022-12-18T14:17:16;102237.69;;;0.12;72.36
2549;BME280;1284;53.520;10.248;2022-12-18T14:19:47;102236.75;;;0.01;73.69
2549;BME280;1284;53.520;10.248;2022-12-18T14:22:21;102245.00;;;0.05;73.86
2549;BME280;1284;53.520;10.248;2022-12-18T14:27:46;102244.16;;;0.21;73.11
2549;BME280;1284;53.520;10.248;2022-12-18T14:30:25;102228.81;;;0.23;73.16
2549;BME280;1284;53.520;10.248;2022-12-18T14:33:24;102235.53;;;0.30;73.19
2549;BME280;1284;53.520;10.248;2022-12-18T14:41:04;102233.19;;;0.12;73.80
2549;BME280;1284;53.520;10.248;2022-12-18T14:43:33;102222.34;;;0.14;74.00
2549;BME280;1284;53.520;10.248;2022-12-18T14:46:00;102216.00;;;0.15;74.21
2549;BME280;1284;53.520;10.248;2022-12-18T14:48:40;102220.69;;;0.08;74.17
2549;BME280;1284;53.520;10.248;2022-12-18T14:51:18;102227.16;;;0.17;74.17
2549;BME280;1284;53.520;10.248;2022-12-18T14:53:59;102218.91;;;0.13;74.08
2549;BME280;1284;53.520;10.248;2022-12-18T14:56:35;102216.31;;;0.18;73.92
2549;BME280;1284;53.520;10.248;2022-12-18T15:01:45;102209.31;;;0.07;74.21
2549;BME280;1284;53.520;10.248;2022-12-18T15:04:31;102211.69;;;0.09;74.33
2549;BME280;1284;53.520;10.248;2022-12-18T15:09:43;102207.59;;;-0.04;74.78
2549;BME280;1284;53.520;10.248;2022-12-18T15:17:31;102184.75;;;-0.10;75.14
2549;BME280;1284;53.520;10.248;2022-12-18T15:20:09;102177.28;;;-0.13;74.92
2549;BME280;1284;53.520;10.248;2022-12-18T15:22:36;102174.94;;;-0.10;75.11
2549;BME280;1284;53.520;10.248;2022-12-18T15:25:17;102167.56;;;-0.29;75.29
2549;BME280;1284;53.520;10.248;2022-12-18T15:27:49;102161.88;;;-0.38;75.71